Latest Weather Observations for Geraldton Airport

IDW60801

Issued at 1:35 pm WST Thursday 23 October 2014 (issued every 30 minutes, with the page automatically refreshed every 10 minutes)

About weather observations | Map of weather stations | Latest weather observations for WA | Other Formats
Station Details ID: 008315 Name: GERALDTON AIRPORT Lat: -28.80 Lon: 114.70 Height: 29.7 m
Data from the previous 72 hours. | See also: Recent months at Geraldton Airport
Date/Time
WST
Temp
°C
App
Temp
°C
Dew
Point
Rel
Hum
%
Delta-T
°C
Wind Press
QNH
hPa
Press
MSL
hPa
Rain
since 9 am
mm
Dir
 
Spd
km/h
Gust
km/h
Spd
kts
Gust
kts
23/01:30pm 24.2 21.0 11.8 45 7.0 SW 20 30 11 16 1016.5 - 0.2
23/01:00pm 24.0 20.9 11.7 46 6.9 W 19 28 10 15 1016.7 - 0.2
23/12:30pm 23.4 20.3 12.1 49 6.4 W 20 32 11 17 1016.9 - 0.2
23/12:00pm 22.8 19.2 13.2 54 5.5 WSW 24 30 13 16 1017.0 1016.9 0.2
23/11:30am 23.8 20.8 12.7 49 6.4 WSW 20 26 11 14 1017.3 - 0.2
23/11:00am 23.2 20.7 12.3 50 6.2 WSW 17 22 9 12 1017.5 - 0.0
23/10:30am 22.8 20.2 11.9 50 6.1 WSW 17 26 9 14 1017.6 - 0.0
23/10:00am 22.5 20.2 13.1 55 5.4 WSW 17 22 9 12 1017.7 - 0.0
23/09:30am 22.1 20.6 13.2 57 5.1 W 13 19 7 10 1017.6 - 0.0
23/09:00am 21.9 20.1 13.2 57 5.0 W 15 22 8 12 1017.5 1017.4 1.6
23/08:30am 21.0 18.5 12.3 57 4.9 WSW 17 20 9 11 1017.2 - 1.6
23/08:00am 20.3 18.8 13.1 63 4.1 WSW 13 17 7 9 1016.9 - 1.6
23/07:30am 18.9 19.5 15.7 82 1.9 NNE 7 11 4 6 1016.6 - 1.6
23/07:00am 17.7 17.8 15.5 87 1.3 NNE 9 11 5 6 1016.3 - 1.6
23/06:30am 15.9 15.6 14.3 90 0.9 N 9 15 5 8 1016.0 - 1.6
23/06:00am 15.0 14.5 13.9 93 0.6 N 9 11 5 6 1015.7 1015.6 1.6
23/05:30am 14.9 14.8 13.8 93 0.6 NNE 7 11 4 6 1015.5 - 1.6
23/05:00am 16.2 16.4 14.6 90 0.9 N 7 9 4 5 1015.4 - 1.6
23/04:30am 17.2 17.1 15.0 87 1.3 NW 9 11 5 6 1015.4 - 1.6
23/04:19am 17.5 16.6 14.9 85 1.5 WNW 13 17 7 9 1015.5 - 1.6
23/04:03am 17.0 17.2 14.6 86 1.4 NNW 7 15 4 8 1015.6 - 1.6
23/04:00am 16.0 16.0 13.7 86 1.3 N 6 11 3 6 1015.6 - 1.6
23/03:30am 17.1 16.6 13.9 81 1.8 W 9 11 5 6 1015.5 - 1.4
23/03:00am 17.4 16.2 14.1 81 1.9 W 13 17 7 9 1015.8 1015.7 1.4
23/02:30am 17.7 16.6 14.3 80 2.0 W 13 20 7 11 1016.0 - 1.4
23/02:00am 17.3 16.5 14.0 81 1.9 W 11 13 6 7 1016.0 - 1.4
23/01:30am 17.6 16.3 13.8 78 2.2 W 13 15 7 8 1016.1 - 1.4
23/01:00am 17.8 17.0 14.0 78 2.2 W 11 15 6 8 1016.2 - 1.4
23/12:30am 18.1 16.5 14.0 77 2.3 W 15 19 8 10 1016.4 - 1.4
23/12:00am 18.4 17.0 14.5 78 2.3 W 15 20 8 11 1016.5 1016.4 1.4
 
Date/Time
WST
Temp
°C
App
Temp
°C
Dew
Point
Rel
Hum
%
Delta-T
°C
Wind Press
QNH
hPa
Press
MSL
hPa
Rain
since 9 am
mm
Dir
 
Spd
km/h
Gust
km/h
Spd
kts
Gust
kts
22/11:30pm 18.4 17.8 14.7 79 2.1 W 11 19 6 10 1016.6 - 1.4
22/11:00pm 18.2 17.5 14.2 77 2.3 WNW 11 15 6 8 1016.8 - 1.4
22/10:30pm 17.6 16.4 13.9 79 2.1 WNW 13 15 7 8 1017.0 - 1.4
22/10:00pm 18.6 17.5 14.3 76 2.5 W 13 19 7 10 1017.0 - 1.4
22/09:30pm 19.0 17.7 14.7 76 2.5 WNW 15 20 8 11 1016.9 - 1.4
22/09:00pm 19.0 19.0 17.1 89 1.2 WNW 13 20 7 11 1016.7 1016.6 1.4
22/08:30pm 18.4 18.5 16.6 89 1.1 N 11 13 6 7 1016.5 - 1.4
22/08:00pm 18.5 18.0 16.0 85 1.5 NNW 13 20 7 11 1016.6 - 1.4
22/07:30pm 18.5 17.5 15.6 83 1.7 NNW 15 20 8 11 1016.4 - 1.4
22/07:09pm 20.0 16.8 16.2 79 2.3 W 28 41 15 22 1016.3 - 0.0
22/07:00pm 20.6 17.7 15.2 71 3.2 NW 24 32 13 17 1016.1 - 0.0
22/06:30pm 20.8 18.2 15.8 73 3.0 NW 24 30 13 16 1015.9 - 0.0
22/06:00pm 21.2 17.7 14.4 65 4.0 NW 26 35 14 19 1015.6 1015.5 0.0
22/05:30pm 21.5 18.7 14.3 63 4.2 NW 22 30 12 16 1015.4 - 0.0
22/05:00pm 22.2 19.2 13.6 58 5.0 NW 22 30 12 16 1015.4 - 0.0
22/04:30pm 22.3 18.7 13.1 56 5.3 NW 24 33 13 18 1015.4 - 0.0
22/04:00pm 22.9 19.4 13.5 55 5.5 NW 24 33 13 18 1015.3 - 0.0
22/03:30pm 22.4 18.6 13.6 57 5.1 WNW 26 37 14 20 1015.4 - 0.0
22/03:00pm 23.8 19.5 13.1 51 6.2 NW 28 35 15 19 1015.3 1015.2 0.0
22/02:30pm 24.1 20.5 10.6 42 7.5 WNW 20 32 11 17 1015.3 - 0.0
22/02:00pm 23.6 19.7 12.2 48 6.5 WNW 24 35 13 19 1015.6 - 0.0
22/01:30pm 23.7 19.2 11.5 46 6.9 NW 26 39 14 21 1015.8 - 0.0
22/01:00pm 23.7 19.3 10.5 43 7.3 W 24 37 13 20 1015.9 - 0.0
22/12:30pm 23.9 18.7 8.9 38 8.1 W 26 35 14 19 1016.0 - 0.0
22/12:00pm 24.1 20.1 11.8 46 7.0 W 24 37 13 20 1016.0 1015.9 0.0
22/11:30am 23.3 19.1 12.4 50 6.2 W 26 39 14 21 1016.1 - 0.0
22/11:00am 22.7 18.5 12.5 52 5.8 W 26 33 14 18 1016.2 - 0.0
22/10:30am 22.5 18.8 13.9 58 5.0 W 26 35 14 19 1016.3 - 0.0
22/10:00am 22.6 20.1 14.0 58 5.0 W 20 33 11 18 1016.2 - 0.0
22/09:30am 22.6 20.1 14.0 58 5.0 W 20 30 11 16 1016.3 - 0.0
22/09:00am 22.4 19.8 13.7 58 5.0 W 20 30 11 16 1016.2 1016.1 0.0
22/08:30am 21.9 19.7 14.8 64 4.2 W 20 24 11 13 1016.0 - 0.0
22/08:00am 21.3 20.0 14.9 67 3.8 WSW 15 22 8 12 1015.5 - 0.0
22/07:30am 20.4 19.2 16.1 76 2.6 W 17 24 9 13 1015.4 - 0.0
22/07:00am 19.5 18.3 16.0 80 2.1 WSW 17 22 9 12 1015.2 - 0.0
22/06:30am 19.3 18.8 16.8 85 1.5 WSW 15 20 8 11 1015.0 - 0.0
22/06:00am 18.9 17.9 16.6 86 1.4 WSW 17 20 9 11 1014.8 1014.7 0.0
22/05:30am 19.1 17.4 17.1 88 1.2 WSW 22 30 12 16 1014.5 - 0.0
22/05:05am 19.2 18.0 17.6 90 1.0 W 20 28 11 15 1014.2 - 0.0
22/05:00am 19.1 18.2 17.7 92 0.9 WSW 19 28 10 15 1014.1 - 0.0
22/04:52am 18.8 17.9 17.7 93 0.7 W 19 24 10 13 1014.1 - 0.0
22/04:30am 15.3 14.9 14.2 93 0.6 NW 9 13 5 7 1013.9 - 0.0
22/04:00am 14.1 13.0 13.1 94 0.6 NNW 11 15 6 8 1013.9 - 0.0
22/03:30am 13.6 12.3 12.5 93 0.6 N 11 13 6 7 1013.7 - 0.0
22/03:00am 13.6 11.9 12.6 94 0.5 N 13 15 7 8 1013.2 1013.1 0.0
22/02:30am 13.1 11.6 12.0 93 0.6 NNE 11 13 6 7 1013.4 - 0.0
22/02:00am 14.0 12.5 13.0 94 0.5 NNW 13 15 7 8 1013.8 - 0.0
22/01:30am 13.6 12.7 12.5 93 0.6 NNW 9 11 5 6 1013.9 - 0.0
22/01:00am 12.8 12.3 11.9 94 0.5 NNW 6 7 3 4 1013.8 - 0.0
22/12:30am 14.0 13.6 12.9 93 0.6 NW 7 7 4 4 1014.1 - 0.0
22/12:00am 14.5 13.9 13.4 93 0.6 NW 9 13 5 7 1014.7 1014.6 0.0
 
Date/Time
WST
Temp
°C
App
Temp
°C
Dew
Point
Rel
Hum
%
Delta-T
°C
Wind Press
QNH
hPa
Press
MSL
hPa
Rain
since 9 am
mm
Dir
 
Spd
km/h
Gust
km/h
Spd
kts
Gust
kts
21/11:30pm 13.8 13.2 12.3 91 0.8 NW 7 9 4 5 1015.0 - 0.0
21/11:00pm 14.6 15.7 13.4 92 0.7 CALM 0 0 0 0 1015.3 - 0.0
21/10:30pm 14.1 14.1 12.3 89 1.0 WNW 4 6 2 3 1015.9 - 0.0
21/10:00pm 15.1 16.3 13.7 91 0.8 CALM 0 0 0 0 1016.3 - 0.0
21/09:30pm 15.4 16.6 13.7 90 1.0 CALM 0 2 0 1 1016.5 - 0.0
21/09:00pm 16.8 16.5 14.3 85 1.4 SSE 9 9 5 5 1016.6 1016.5 0.0
21/08:30pm 18.1 17.7 15.2 83 1.7 SSE 11 15 6 8 1016.6 - 0.0
21/08:00pm 18.8 17.7 15.2 79 2.1 S 15 20 8 11 1016.9 - 0.0
21/07:30pm 18.8 17.8 14.7 77 2.4 S 13 17 7 9 1016.8 - 0.0
21/07:00pm 19.4 17.1 14.2 72 3.0 SSE 19 26 10 14 1016.4 - 0.0
21/06:30pm 20.1 17.6 14.0 68 3.5 SSE 20 32 11 17 1016.4 - 0.0
21/06:00pm 21.0 17.0 14.1 64 4.0 S 28 37 15 20 1016.4 1016.3 0.0
21/05:30pm 21.6 16.4 12.8 57 5.0 S 32 39 17 21 1016.4 - 0.0
21/05:00pm 22.4 17.8 12.3 52 5.7 S 28 37 15 20 1016.3 - 0.0
21/04:30pm 22.8 17.8 12.2 51 6.0 S 30 39 16 21 1016.5 - 0.0
21/04:00pm 23.5 18.7 11.6 47 6.7 S 28 35 15 19 1016.5 - 0.0
21/03:30pm 23.7 18.6 11.8 47 6.7 S 30 37 16 20 1016.5 - 0.0
21/03:00pm 24.5 20.2 11.9 45 7.2 S 26 35 14 19 1016.7 1016.6 0.0
21/02:30pm 24.9 20.2 12.0 44 7.4 SSW 28 33 15 18 1016.9 - 0.0
21/02:00pm 25.4 21.2 11.0 40 8.1 SSW 24 33 13 18 1017.4 - 0.0
21/01:30pm 25.0 20.1 11.4 42 7.7 SSW 28 35 15 19 1017.6 - 0.0
21/01:00pm 24.4 19.5 11.3 43 7.4 SSW 28 33 15 18 1018.0 - 0.0
21/12:30pm 25.0 19.9 12.0 44 7.4 SSW 30 37 16 20 1018.4 - 0.0
21/12:00pm 26.7 23.3 10.7 36 9.0 S 19 26 10 14 1018.4 1018.4 0.0
21/11:30am 26.9 23.8 10.3 35 9.3 S 17 28 9 15 1018.5 - 0.0
21/11:00am 25.0 21.6 10.7 40 8.0 SW 19 24 10 13 1019.3 - 0.0
21/10:30am 25.4 22.8 7.7 32 9.4 E 11 19 6 10 1019.8 - 0.0
21/10:00am 24.3 21.3 7.9 35 8.7 ESE 13 26 7 14 1020.1 - 0.0
21/09:30am 23.2 20.3 8.3 38 7.9 SE 13 20 7 11 1020.5 - 0.0
21/09:00am 22.0 18.9 8.8 43 7.0 ESE 15 20 8 11 1020.5 1020.5 0.0
21/08:30am 21.0 18.4 9.2 46 6.3 ESE 13 20 7 11 1020.7 - 0.0
21/08:00am 19.1 15.7 9.0 52 5.3 ESE 17 24 9 13 1020.7 - 0.0
21/07:30am 17.5 13.7 9.2 58 4.3 E 19 26 10 14 1020.7 - 0.0
21/07:00am 15.8 13.7 9.9 68 3.1 ESE 11 20 6 11 1020.5 - 0.0
21/06:30am 12.8 11.6 10.3 85 1.3 S 7 9 4 5 1020.0 - 0.0
21/06:00am 10.9 9.4 9.1 89 0.9 S 7 11 4 6 1019.7 1019.7 0.0
21/05:30am 9.8 8.4 9.0 95 0.4 ESE 6 9 3 5 1019.4 - 0.0
21/05:00am 9.7 9.1 9.0 95 0.3 SE 2 6 1 3 1019.5 - 0.0
21/04:30am 9.3 7.7 8.1 92 0.6 SE 6 7 3 4 1019.2 - 0.0
21/04:00am 10.0 8.4 8.8 92 0.6 ESE 7 9 4 5 1019.4 - 0.0
21/03:30am 10.1 8.8 9.3 95 0.4 E 6 7 3 4 1019.5 - 0.0
21/03:00am 10.3 8.8 9.3 93 0.5 E 7 7 4 4 1019.4 1019.4 0.0
21/02:30am 9.8 8.2 8.8 93 0.5 SE 7 7 4 4 1019.4 - 0.0
21/02:00am 11.0 9.3 9.8 92 0.6 SSE 9 11 5 6 1019.4 - 0.0
21/01:30am 11.2 9.1 9.8 91 0.7 SSE 11 11 6 6 1019.4 - 0.0
21/01:00am 11.4 9.7 10.0 91 0.7 SE 9 11 5 6 1019.6 - 0.0
21/12:30am 11.7 9.7 10.1 90 0.8 SSE 11 13 6 7 1019.6 - 0.0
21/12:00am 12.0 10.0 10.3 89 0.9 SE 11 13 6 7 1019.8 1019.8 0.0
 
Date/Time
WST
Temp
°C
App
Temp
°C
Dew
Point
Rel
Hum
%
Delta-T
°C
Wind Press
QNH
hPa
Press
MSL
hPa
Rain
since 9 am
mm
Dir
 
Spd
km/h
Gust
km/h
Spd
kts
Gust
kts
20/11:30pm 12.3 10.4 10.5 89 0.9 SSE 11 13 6 7 1019.8 - 0.0
20/11:00pm 12.5 10.2 10.6 88 1.0 SSE 13 13 7 7 1019.9 - 0.0
20/10:30pm 13.2 11.4 11.0 86 1.2 SSE 11 13 6 7 1020.0 - 0.0
20/10:00pm 13.6 12.2 11.0 84 1.4 SE 9 13 5 7 1020.2 - 0.0
20/09:30pm 13.9 12.2 11.1 83 1.5 SE 11 11 6 6 1020.3 - 0.0
20/09:00pm 14.2 12.8 11.0 81 1.7 SE 9 11 5 6 1020.3 1020.3 0.0
20/08:30pm 15.5 13.6 11.7 78 2.1 SSE 13 15 7 8 1020.1 - 0.0
20/08:00pm 16.5 15.0 12.0 75 2.5 SSE 11 15 6 8 1020.0 - 0.0
20/07:30pm 17.5 15.7 12.1 70 3.0 S 13 17 7 9 1019.9 - 0.0
20/07:00pm 17.9 15.3 12.0 68 3.3 S 17 20 9 11 1019.6 - 0.0
20/06:30pm 18.6 15.2 11.3 62 4.0 S 20 30 11 16 1019.4 - 0.0
20/06:00pm 19.6 15.3 10.6 56 4.9 S 24 33 13 18 1019.1 1019.1 0.0
20/05:30pm 20.2 15.4 10.4 53 5.3 S 26 33 14 18 1018.9 - 0.0
20/05:00pm 21.2 16.7 9.9 48 6.1 S 24 35 13 19 1018.7 - 0.0
20/04:30pm 21.3 16.0 9.8 48 6.2 SSW 28 35 15 19 1018.7 - 0.0
20/04:00pm 22.1 17.2 8.5 41 7.2 S 24 33 13 18 1018.3 - 0.0
20/03:30pm 22.7 18.2 8.4 40 7.6 S 22 32 12 17 1018.1 - 0.0
20/03:00pm 22.3 16.9 8.0 40 7.5 SSW 26 35 14 19 1018.0 1018.0 0.0
20/02:30pm 23.0 18.0 8.0 38 7.9 SSW 24 35 13 19 1018.0 - 0.0
20/02:00pm 22.6 17.5 7.7 38 7.8 S 24 32 13 17 1018.1 - 0.0

Other Formats:

Comma delimited format used in spreadsheet applications
http://www.bom.gov.au/fwo/IDW60801/IDW60801.94403.axf

JavaScript Object Notation format (JSON) in row-major order
http://www.bom.gov.au/fwo/IDW60801/IDW60801.94403.json